Time,TemperatureF,DewpointF,PressureIn,WindDirection,WindDirectionDegrees,WindSpeedMPH,WindSpeedGustMPH,Humidity,HourlyPrecipIn,Conditions,Clouds,dailyrainin,SoftwareType,DateUTC
2013-08-13 00:04:00,70.4,66.0,30.03,WNW,287,0.0,-999.0,87,-99.99,,,0.00,weatherlink.com 1.10,2013-08-13 04:04:00,
2013-08-13 00:20:00,70.4,66.0,30.02,WNW,287,0.0,-999.0,87,-99.99,,,0.00,weatherlink.com 1.10,2013-08-13 04:20:00,
2013-08-13 00:35:00,70.3,66.0,30.02,WNW,287,0.0,-999.0,87,-99.99,,,0.00,weatherlink.com 1.10,2013-08-13 04:35:00,
2013-08-13 00:50:00,70.2,66.0,30.02,WNW,287,0.0,-999.0,87,-99.99,,,0.00,weatherlink.com 1.10,2013-08-13 04:50:00,
2013-08-13 01:05:00,70.1,66.0,30.02,WNW,287,0.0,-999.0,87,-99.99,,,0.00,weatherlink.com 1.10,2013-08-13 05:05:00,
2013-08-13 01:20:00,70.0,66.0,30.02,WNW,287,0.0,-999.0,86,-99.99,,,0.00,weatherlink.com 1.10,2013-08-13 05:20:00,
2013-08-13 01:35:00,69.9,66.0,30.02,WNW,287,0.0,-999.0,86,-99.99,,,0.00,weatherlink.com 1.10,2013-08-13 05:35:00,
2013-08-13 01:50:00,69.8,66.0,30.01,WNW,287,0.0,-999.0,86,-99.99,,,0.00,weatherlink.com 1.10,2013-08-13 05:50:00,
2013-08-13 02:05:00,69.6,66.0,30.00,WNW,287,0.0,-999.0,87,-99.99,,,0.00,weatherlink.com 1.10,2013-08-13 06:05:00,
2013-08-13 02:20:00,69.5,65.0,29.99,WNW,287,0.0,-999.0,86,-99.99,,,0.00,weatherlink.com 1.10,2013-08-13 06:20:00,
2013-08-13 02:35:00,69.4,65.0,29.99,WNW,287,0.0,-999.0,86,-99.99,,,0.00,weatherlink.com 1.10,2013-08-13 06:35:00,
2013-08-13 02:50:00,69.3,65.0,29.99,WNW,287,0.0,-999.0,86,-99.99,,,0.00,weatherlink.com 1.10,2013-08-13 06:50:00,
2013-08-13 03:05:00,69.1,65.0,29.98,WNW,287,0.0,-999.0,86,-99.99,,,0.00,weatherlink.com 1.10,2013-08-13 07:05:00,
2013-08-13 03:21:00,69.0,65.0,29.99,WNW,287,0.0,-999.0,86,-99.99,,,0.00,weatherlink.com 1.10,2013-08-13 07:21:00,
2013-08-13 03:36:00,68.9,65.0,29.99,WNW,287,0.0,-999.0,86,-99.99,,,0.00,weatherlink.com 1.10,2013-08-13 07:36:00,
2013-08-13 03:51:00,68.9,65.0,29.98,WNW,287,0.0,-999.0,86,-99.99,,,0.00,weatherlink.com 1.10,2013-08-13 07:51:00,
2013-08-13 04:06:00,69.0,65.0,29.98,WNW,287,0.0,-999.0,87,-99.99,,,0.00,weatherlink.com 1.10,2013-08-13 08:06:00,
2013-08-13 04:21:00,69.0,65.0,29.97,WNW,287,0.0,-999.0,87,-99.99,,,0.00,weatherlink.com 1.10,2013-08-13 08:21:00,
2013-08-13 04:36:00,68.8,65.0,29.97,WNW,287,0.0,-999.0,87,-99.99,,,0.00,weatherlink.com 1.10,2013-08-13 08:36:00,
2013-08-13 04:51:00,68.7,64.0,29.96,WNW,287,0.0,-999.0,86,-99.99,,,0.00,weatherlink.com 1.10,2013-08-13 08:51:00,
2013-08-13 05:06:00,68.6,64.0,29.97,WNW,287,0.0,-999.0,86,-99.99,,,0.00,weatherlink.com 1.10,2013-08-13 09:06:00,
2013-08-13 05:21:00,68.5,64.0,29.96,WNW,287,0.0,-999.0,86,-99.99,,,0.00,weatherlink.com 1.10,2013-08-13 09:21:00,
2013-08-13 05:36:00,68.4,64.0,29.95,WNW,287,0.0,-999.0,87,-99.99,,,0.00,weatherlink.com 1.10,2013-08-13 09:36:00,
2013-08-13 05:51:00,68.3,64.0,29.95,WNW,287,0.0,-999.0,86,-99.99,,,0.00,weatherlink.com 1.10,2013-08-13 09:51:00,
2013-08-13 06:07:00,68.1,64.0,29.95,WNW,287,0.0,-999.0,87,-99.99,,,0.00,weatherlink.com 1.10,2013-08-13 10:07:00,
2013-08-13 06:22:00,68.1,64.0,29.94,WNW,287,0.0,-999.0,87,-99.99,,,0.00,weatherlink.com 1.10,2013-08-13 10:22:00,
2013-08-13 06:37:00,68.2,64.0,29.95,WNW,287,0.0,-999.0,87,-99.99,,,0.00,weatherlink.com 1.10,2013-08-13 10:37:00,
2013-08-13 06:52:00,68.3,64.0,29.95,WNW,287,0.0,-999.0,87,-99.99,,,0.00,weatherlink.com 1.10,2013-08-13 10:52:00,
2013-08-13 07:07:00,68.4,64.0,29.95,WNW,287,0.0,-999.0,87,-99.99,,,0.00,weatherlink.com 1.10,2013-08-13 11:07:00,
2013-08-13 07:22:00,68.7,65.0,29.95,NW,304,0.0,-999.0,87,-99.99,,,0.00,weatherlink.com 1.10,2013-08-13 11:22:00,
2013-08-13 07:37:00,69.2,65.0,29.95,WNW,298,0.0,-999.0,87,-99.99,,,0.00,weatherlink.com 1.10,2013-08-13 11:37:00,
2013-08-13 07:52:00,69.4,65.0,29.95,WNW,298,0.0,-999.0,87,-99.99,,,0.00,weatherlink.com 1.10,2013-08-13 11:52:00,
2013-08-13 08:07:00,70.1,66.0,29.96,WNW,299,0.0,-999.0,87,-99.99,,,0.00,weatherlink.com 1.10,2013-08-13 12:07:00,
2013-08-13 08:22:00,70.6,67.0,29.96,North,353,0.0,-999.0,87,-99.99,,,0.00,weatherlink.com 1.10,2013-08-13 12:22:00,
2013-08-13 08:37:00,70.9,67.0,29.96,NW,315,0.0,-999.0,87,-99.99,,,0.00,weatherlink.com 1.10,2013-08-13 12:37:00,
2013-08-13 08:52:00,71.2,67.0,29.96,WNW,286,0.0,-999.0,87,-99.99,,,0.00,weatherlink.com 1.10,2013-08-13 12:52:00,
2013-08-13 09:07:00,71.5,68.0,29.97,WNW,286,0.0,-999.0,88,-99.99,,,0.00,weatherlink.com 1.10,2013-08-13 13:07:00,
2013-08-13 09:23:00,71.8,68.0,29.98,NW,312,0.0,-999.0,87,-99.99,,,0.00,weatherlink.com 1.10,2013-08-13 13:23:00,
2013-08-13 09:38:00,71.9,68.0,29.98,NW,312,0.0,-999.0,87,-99.99,,,0.00,weatherlink.com 1.10,2013-08-13 13:38:00,
2013-08-13 09:53:00,72.2,68.0,29.97,NW,312,0.0,-999.0,87,-99.99,,,0.00,weatherlink.com 1.10,2013-08-13 13:53:00,
2013-08-13 10:08:00,72.9,69.0,29.97,NW,312,0.0,-999.0,88,-99.99,,,0.00,weatherlink.com 1.10,2013-08-13 14:08:00,
2013-08-13 10:23:00,73.8,70.0,29.97,NW,321,0.0,-999.0,88,-99.99,,,0.00,weatherlink.com 1.10,2013-08-13 14:23:00,
2013-08-13 10:38:00,74.4,70.0,29.96,NW,321,0.0,-999.0,87,-99.99,,,0.00,weatherlink.com 1.10,2013-08-13 14:38:00,
2013-08-13 10:53:00,74.5,70.0,29.97,NW,321,0.0,-999.0,86,-99.99,,,0.00,weatherlink.com 1.10,2013-08-13 14:53:00,
2013-08-13 11:08:00,75.0,70.0,29.97,NW,321,0.0,-999.0,85,-99.99,,,0.00,weatherlink.com 1.10,2013-08-13 15:08:00,
2013-08-13 11:23:00,75.8,71.0,29.97,NW,321,0.0,-999.0,84,-99.99,,,0.00,weatherlink.com 1.10,2013-08-13 15:23:00,
2013-08-13 11:38:00,76.5,71.0,29.97,NW,318,0.0,-999.0,83,-99.99,,,0.00,weatherlink.com 1.10,2013-08-13 15:38:00,
2013-08-13 11:54:00,77.6,71.0,29.97,NW,326,0.0,-999.0,80,-99.99,,,0.00,weatherlink.com 1.10,2013-08-13 15:54:00,
2013-08-13 12:09:00,78.1,72.0,29.96,NNW,329,0.0,-999.0,81,-99.99,,,0.00,weatherlink.com 1.10,2013-08-13 16:09:00,
2013-08-13 12:24:00,79.6,72.0,29.96,North,358,0.0,-999.0,78,-99.99,,,0.00,weatherlink.com 1.10,2013-08-13 16:24:00,
2013-08-13 12:39:00,80.7,73.0,29.95,NNW,338,0.0,-999.0,76,-99.99,,,0.00,weatherlink.com 1.10,2013-08-13 16:39:00,
2013-08-13 12:54:00,81.0,74.0,29.95,NW,326,0.0,-999.0,78,-99.99,,,0.00,weatherlink.com 1.10,2013-08-13 16:54:00,
2013-08-13 13:24:00,82.1,72.0,29.93,WSW,244,0.0,-999.0,72,-99.99,,,0.00,weatherlink.com 1.10,2013-08-13 17:24:00,
2013-08-13 13:39:00,81.1,73.0,29.92,WSW,245,0.0,-999.0,75,-99.99,,,0.00,weatherlink.com 1.10,2013-08-13 17:39:00,
2013-08-13 13:54:00,79.9,72.0,29.92,WSW,245,0.0,-999.0,77,-99.99,,,0.00,weatherlink.com 1.10,2013-08-13 17:54:00,
2013-08-13 14:09:00,80.7,73.0,29.92,WSW,245,0.0,-999.0,78,-99.99,,,0.00,weatherlink.com 1.10,2013-08-13 18:09:00,
2013-08-13 14:25:00,80.1,72.0,29.91,WSW,245,0.0,-999.0,76,-99.99,,,0.00,weatherlink.com 1.10,2013-08-13 18:25:00,
2013-08-13 14:40:00,80.3,73.0,29.90,WSW,245,0.0,-999.0,78,-99.99,,,0.00,weatherlink.com 1.10,2013-08-13 18:40:00,
2013-08-13 14:55:00,81.9,73.0,29.90,West,275,0.0,-999.0,74,-99.99,,,0.00,weatherlink.com 1.10,2013-08-13 18:55:00,
2013-08-13 15:10:00,82.0,73.0,29.89,West,277,0.0,-999.0,73,-99.99,,,0.00,weatherlink.com 1.10,2013-08-13 19:10:00,
2013-08-13 15:25:00,81.7,72.0,29.89,West,277,0.0,-999.0,72,-99.99,,,0.00,weatherlink.com 1.10,2013-08-13 19:25:00,
2013-08-13 15:40:00,83.2,69.0,29.90,West,265,1.0,-999.0,62,-99.99,,,0.00,weatherlink.com 1.10,2013-08-13 19:40:00,
2013-08-13 15:55:00,77.6,66.0,29.89,SSW,200,0.0,-999.0,67,-99.99,,,0.00,weatherlink.com 1.10,2013-08-13 19:55:00,
2013-08-13 16:10:00,75.6,66.0,29.89,SE,139,0.0,-999.0,73,-99.99,,,0.00,weatherlink.com 1.10,2013-08-13 20:10:00,
2013-08-13 16:25:00,74.2,67.0,29.89,South,174,0.0,-999.0,77,-99.99,,,0.04,weatherlink.com 1.10,2013-08-13 20:25:00,
2013-08-13 16:40:00,72.6,68.0,29.90,South,174,0.0,-999.0,84,-99.99,,,0.05,weatherlink.com 1.10,2013-08-13 20:40:00,
2013-08-13 16:55:00,72.4,68.0,29.90,South,174,0.0,-999.0,85,-99.99,,,0.05,weatherlink.com 1.10,2013-08-13 20:55:00,
2013-08-13 17:11:00,72.3,67.0,29.89,West,266,0.0,-999.0,84,-99.99,,,0.06,weatherlink.com 1.10,2013-08-13 21:11:00,
2013-08-13 17:26:00,72.9,68.0,29.89,West,266,0.0,-999.0,85,-99.99,,,0.06,weatherlink.com 1.10,2013-08-13 21:26:00,
2013-08-13 17:41:00,75.0,68.0,29.89,West,269,0.0,-999.0,78,-99.99,,,0.06,weatherlink.com 1.10,2013-08-13 21:41:00,
2013-08-13 17:56:00,73.7,69.0,29.90,West,269,0.0,-999.0,84,-99.99,,,0.06,weatherlink.com 1.10,2013-08-13 21:56:00,
2013-08-13 18:11:00,74.5,69.0,29.90,West,271,0.0,-999.0,82,-99.99,,,0.06,weatherlink.com 1.10,2013-08-13 22:11:00,
2013-08-13 18:26:00,74.1,69.0,29.89,West,271,0.0,-999.0,84,-99.99,,,0.06,weatherlink.com 1.10,2013-08-13 22:26:00,
2013-08-13 18:41:00,75.3,69.0,29.88,West,280,0.0,-999.0,81,-99.99,,,0.06,weatherlink.com 1.10,2013-08-13 22:41:00,
2013-08-13 18:56:00,74.8,69.0,29.89,West,280,0.0,-999.0,82,-99.99,,,0.06,weatherlink.com 1.10,2013-08-13 22:56:00,
2013-08-13 19:11:00,75.0,69.0,29.89,WNW,282,0.0,-999.0,82,-99.99,,,0.06,weatherlink.com 1.10,2013-08-13 23:11:00,
2013-08-13 19:26:00,73.9,69.0,29.90,WNW,282,0.0,-999.0,83,-99.99,,,0.06,weatherlink.com 1.10,2013-08-13 23:26:00,
2013-08-13 19:41:00,73.6,68.0,29.89,WNW,282,0.0,-999.0,83,-99.99,,,0.06,weatherlink.com 1.10,2013-08-13 23:41:00,
2013-08-13 19:57:00,73.3,69.0,29.90,WNW,282,0.0,-999.0,85,-99.99,,,0.06,weatherlink.com 1.10,2013-08-13 23:57:00,
2013-08-13 20:11:00,72.9,68.0,29.90,WNW,282,0.0,-999.0,85,-99.99,,,0.06,weatherlink.com 1.10,2013-08-14 00:11:00,
2013-08-13 20:26:00,72.6,68.0,29.91,WNW,282,0.0,-999.0,85,-99.99,,,0.06,weatherlink.com 1.10,2013-08-14 00:26:00,
2013-08-13 20:42:00,73.1,69.0,29.91,WNW,282,0.0,-999.0,86,-99.99,,,0.06,weatherlink.com 1.10,2013-08-14 00:42:00,
2013-08-13 20:57:00,73.2,69.0,29.91,WNW,282,0.0,-999.0,86,-99.99,,,0.06,weatherlink.com 1.10,2013-08-14 00:57:00,
2013-08-13 21:12:00,72.9,69.0,29.91,WNW,282,0.0,-999.0,86,-99.99,,,0.06,weatherlink.com 1.10,2013-08-14 01:12:00,
2013-08-13 21:27:00,72.8,68.0,29.92,WNW,282,0.0,-999.0,86,-99.99,,,0.06,weatherlink.com 1.10,2013-08-14 01:27:00,
2013-08-13 21:42:00,72.6,68.0,29.92,WNW,282,0.0,-999.0,84,-99.99,,,0.06,weatherlink.com 1.10,2013-08-14 01:42:00,
2013-08-13 21:57:00,71.8,67.0,29.92,WNW,282,0.0,-999.0,84,-99.99,,,0.06,weatherlink.com 1.10,2013-08-14 01:57:00,
2013-08-13 22:12:00,71.4,67.0,29.93,WNW,282,0.0,-999.0,85,-99.99,,,0.06,weatherlink.com 1.10,2013-08-14 02:12:00,
2013-08-13 22:27:00,70.9,66.0,29.94,WNW,282,0.0,-999.0,85,-99.99,,,0.06,weatherlink.com 1.10,2013-08-14 02:27:00,
2013-08-13 22:42:00,70.6,66.0,29.94,WNW,282,0.0,-999.0,85,-99.99,,,0.06,weatherlink.com 1.10,2013-08-14 02:42:00,
2013-08-13 22:57:00,70.4,66.0,29.94,WNW,282,0.0,-999.0,86,-99.99,,,0.06,weatherlink.com 1.10,2013-08-14 02:57:00,
2013-08-13 23:12:00,70.3,66.0,29.95,WNW,282,0.0,-999.0,86,-99.99,,,0.06,weatherlink.com 1.10,2013-08-14 03:12:00,
2013-08-13 23:27:00,69.9,66.0,29.95,WNW,282,0.0,-999.0,86,-99.99,,,0.06,weatherlink.com 1.10,2013-08-14 03:27:00,
2013-08-13 23:43:00,69.8,65.0,29.94,WNW,282,0.0,-999.0,85,-99.99,,,0.06,weatherlink.com 1.10,2013-08-14 03:43:00,
2013-08-13 23:58:00,69.9,65.0,29.94,WNW,282,0.0,-999.0,85,-99.99,,,0.00,weatherlink.com 1.10,2013-08-14 03:58:00,